Bentonville (XNA/KXNA)

Map

Destinations

Information

Location
Bentonville, AR
Local Time
20:02 / 8:02 pm
GMT Time
01:02 / 1:02 am
Gates
A10
No FAA reported delays
METAR KXNA 240053Z 08005KT 10SM CLR 23/16 A3003 RMK AO2 SLP156 T02330161
TAF KXNA 232321Z 2400/2424 VRB03KT P6SM SKC FM241600 12007KT P6SM FEW250